USCGC Polar Star — NBTM — position and weather

sailwx.info

Track history (hours):
 
Tides and Currents Weather Stations Pressure Air Temp Water Temp Dewpoint Dewpoint Depression Visibility Wind Speed Wind Dir Waves Ship Positions

Oceanographic research ship USCGC Polar Star (USA)

Detailed information on ship capabilities available from University of Delaware's Ocean Information Center and ARCUS's ALIAS (Arctic Logistics Information and Support) project.

Last reported at 2015-Jan-02 03:31 UTC. Time now 2015-Mar-04 08:29 UTC.
Position S 46°09' E 148°07'.
Warning: this ship's position is months out of date.

Type: Military. MMSI: 367255000.

Date/timePositionNaut miles runAvg speedWind from/ knotsBaromVisibWave heightAir tempDewpointWater temp
2015-Jan-02 03:31S 46°09' E 148°07'51313.5
2014-Dec-31 13:31S 37°45' E 150°15'1817.9
2014-Dec-31 12:30S 37°27' E 150°17'1718.0
2014-Dec-31 11:32S 37°10' E 150°20'  
2014-Dec-26 09:33S 33°10' E 152°03'1414.0
2014-Dec-26 08:33S 32°58' E 152°12'1413.7
2014-Dec-26 07:33S 32°51' E 152°25'1413.7
2014-Dec-26 06:33S 32°41' E 152°36'1413.8
2014-Dec-26 05:33S 32°31' E 152°48'2015.7
2014-Dec-26 04:17S 32°15' E 153°02'  
Track history (hours):
 
Tides and Currents Weather Stations Pressure Air Temp Water Temp Dewpoint Dewpoint Depression Visibility Wind Speed Wind Dir Waves Ship Positions

Oceanographic research ship USCGC Polar Star (USA)

Detailed information on ship capabilities available from University of Delaware's Ocean Information Center and ARCUS's ALIAS (Arctic Logistics Information and Support) project.

Last reported at 2015-Jan-02 03:31 UTC. Time now 2015-Mar-04 08:29 UTC.
Position S 46°09' E 148°07'.
Warning: this ship's position is months out of date.

Type: Military. MMSI: 367255000.

Date/timePositionNaut miles runAvg speedWind from/ knotsBaromVisibWave heightAir tempDewpointWater temp
2015-Jan-02 03:31S 46°09' E 148°07'51313.5
2014-Dec-31 13:31S 37°45' E 150°15'1817.9
2014-Dec-31 12:30S 37°27' E 150°17'1718.0
2014-Dec-31 11:32S 37°10' E 150°20'  
2014-Dec-26 09:33S 33°10' E 152°03'1414.0
2014-Dec-26 08:33S 32°58' E 152°12'1413.7
2014-Dec-26 07:33S 32°51' E 152°25'1413.7
2014-Dec-26 06:33S 32°41' E 152°36'1413.8
2014-Dec-26 05:33S 32°31' E 152°48'2015.7
2014-Dec-26 04:17S 32°15' E 153°02'  

Dump ship's entire track history